Time;durP1;ratioP1;P1;durP2;ratioP2;P2;SDS_P1;SDS_P2;PMS_P1;PMS_P2;Temp;Humidity;BMP_temperature;BMP_pressure;BME280_temperature;BME280_humidity;BME280_pressure;Samples;Min_cycle;Max_cycle;Signal;HPM_P1;HPM_P2
2022/03/27 00:01:58;;;;;;;83.90;37.85;;;307.70;793.60;;;;;;5013528;28;20483;-64
2022/03/27 00:04:23;;;;;;;113.47;47.78;;;307.50;819.20;;;;;;5014178;28;20026;-64
2022/03/27 00:06:49;;;;;;;109.93;50.40;;;307.50;819.20;;;;;;5014152;28;20022;-62
2022/03/27 00:09:15;;;;;;;119.60;53.75;;;307.50;819.20;;;;;;5014012;28;20372;-65
2022/03/27 00:11:41;;;;;;;102.65;45.30;;;307.40;819.20;;;;;;5013952;28;20025;-62
2022/03/27 00:14:07;;;;;;;84.75;40.47;;;307.30;819.20;;;;;;5014153;28;20101;-65
2022/03/27 00:16:34;;;;;;;77.93;38.78;;;307.40;819.20;;;;;;5013842;28;20034;-64
2022/03/27 00:19:00;;;;;;;63.70;33.03;;;307.30;819.20;;;;;;5013964;28;20038;-64
2022/03/27 00:21:27;;;;;;;52.92;29.40;;;307.20;819.20;;;;;;5013829;28;20018;-65
2022/03/27 00:23:53;;;;;;;73.18;37.05;;;307.30;819.20;;;;;;5013907;28;20033;-62
2022/03/27 00:26:20;;;;;;;83.95;39.97;;;307.30;819.20;;;;;;5013850;28;20041;-67
2022/03/27 00:28:46;;;;;;;85.70;42.78;;;307.30;819.20;;;;;;5013903;28;20026;-63
2022/03/27 00:31:12;;;;;;;68.63;36.28;;;307.20;844.80;;;;;;5013745;28;20026;-64
2022/03/27 00:33:40;;;;;;;63.00;31.63;;;282.50;819.20;;;;;;5013700;28;20034;-65
2022/03/27 00:36:09;;;;;;;63.08;33.65;;;282.40;819.20;;;;;;5013815;28;20100;-65
2022/03/27 00:38:36;;;;;;;66.85;32.65;;;282.30;844.80;;;;;;5013444;28;20391;-61
2022/03/27 00:41:03;;;;;;;81.65;39.10;;;282.20;844.80;;;;;;5012985;28;20050;-65
2022/03/27 00:43:28;;;;;;;90.07;44.17;;;282.20;844.80;;;;;;5013653;28;20034;-62
2022/03/27 00:45:55;;;;;;;90.80;42.90;;;282.10;870.40;;;;;;5013576;28;20068;-61
2022/03/27 00:48:22;;;;;;;96.88;44.75;;;282.00;870.40;;;;;;5014053;28;20037;-62
2022/03/27 00:50:50;;;;;;;78.55;39.38;;;281.90;870.40;;;;;;5013822;28;20030;-65
2022/03/27 00:53:16;;;;;;;77.72;36.70;;;281.90;870.40;;;;;;5013606;28;20026;-61
2022/03/27 00:55:44;;;;;;;71.85;36.13;;;281.80;870.40;;;;;;5013500;28;20022;-65
2022/03/27 00:58:11;;;;;;;66.43;33.92;;;281.80;896.00;;;;;;5013551;28;20041;-66
2022/03/27 01:00:46;;;;;;;66.45;32.53;;;281.70;896.00;;;;;;5013645;28;20465;-62
2022/03/27 01:03:17;;;;;;;61.65;31.25;;;281.70;896.00;;;;;;5013696;28;20100;-63
2022/03/27 01:05:44;;;;;;;61.85;29.70;;;281.70;896.00;;;;;;5013579;28;20214;-64
2022/03/27 01:08:12;;;;;;;57.28;30.05;;;281.70;896.00;;;;;;5013510;28;20369;-63
2022/03/27 01:10:39;;;;;;;52.72;26.73;;;281.80;870.40;;;;;;5013176;28;20030;-63
2022/03/27 01:13:12;;;;;;;51.00;27.10;;;281.80;896.00;;;;;;5014065;28;20041;-62
2022/03/27 01:15:56;;;;;;;54.85;28.92;;;281.90;896.00;;;;;;5017237;28;20048;-63
2022/03/27 01:18:22;;;;;;;49.08;26.67;;;281.80;896.00;;;;;;5017084;28;20038;-66
2022/03/27 01:20:48;;;;;;;47.25;25.55;;;281.90;870.40;;;;;;5017575;28;20109;-66
2022/03/27 01:23:15;;;;;;;43.20;23.80;;;281.90;870.40;;;;;;5017410;28;20120;-65
2022/03/27 01:25:45;;;;;;;43.03;26.10;;;281.90;870.40;;;;;;5016937;28;20022;-66
2022/03/27 01:28:13;;;;;;;52.40;25.95;;;281.90;870.40;;;;;;5016858;28;20464;-62
2022/03/27 01:30:40;;;;;;;55.33;26.85;;;281.80;870.40;;;;;;5017031;28;20034;-62
2022/03/27 01:33:09;;;;;;;43.75;24.13;;;281.80;870.40;;;;;;5016823;28;20026;-65
2022/03/27 01:35:35;;;;;;;39.42;22.67;;;281.70;896.00;;;;;;5016844;28;20025;-66
2022/03/27 01:38:02;;;;;;;43.65;23.83;;;281.60;896.00;;;;;;5016505;28;20561;-66
2022/03/27 01:40:28;;;;;;;39.72;22.90;;;281.60;896.00;;;;;;5016668;28;20044;-66
2022/03/27 01:42:55;;;;;;;46.58;24.58;;;256.90;870.40;;;;;;5016358;28;20447;-64
2022/03/27 01:45:22;;;;;;;43.03;23.00;;;256.90;870.40;;;;;;5016376;28;20368;-63
2022/03/27 01:47:48;;;;;;;39.63;22.65;;;256.90;896.00;;;;;;5016560;28;20026;-62
2022/03/27 01:50:14;;;;;;;37.17;20.67;;;281.60;921.60;;;;;;5016372;28;20459;-62
2022/03/27 01:52:40;;;;;;;39.22;20.60;;;281.70;896.00;;;;;;5016473;28;20109;-65
2022/03/27 01:55:07;;;;;;;35.63;21.02;;;281.80;896.00;;;;;;5015883;28;20045;-63
2022/03/27 01:57:33;;;;;;;34.28;19.67;;;281.80;896.00;;;;;;5016237;28;20520;-63
2022/03/27 01:59:59;;;;;;;41.78;21.40;;;281.70;896.00;;;;;;5016416;28;20060;-59
2022/03/27 02:02:25;;;;;;;40.20;20.75;;;281.70;896.00;;;;;;5016251;28;20026;-61
2022/03/27 02:04:52;;;;;;;39.03;20.17;;;281.70;896.00;;;;;;5016065;28;20030;-60
2022/03/27 02:07:18;;;;;;;31.90;19.48;;;281.60;896.00;;;;;;5015930;28;20022;-59
2022/03/27 02:09:45;;;;;;;38.22;20.27;;;256.90;870.40;;;;;;5015923;28;20479;-62
2022/03/27 02:12:12;;;;;;;35.67;20.48;;;281.60;921.60;;;;;;5015912;28;20468;-63
2022/03/27 02:14:38;;;;;;;34.08;19.45;;;281.70;896.00;;;;;;5016104;28;20030;-63
2022/03/27 02:17:04;;;;;;;36.10;20.63;;;281.60;896.00;;;;;;5015689;28;20498;-59
2022/03/27 02:19:29;;;;;;;39.92;20.83;;;256.90;896.00;;;;;;5015788;28;20045;-59
2022/03/27 02:21:55;;;;;;;34.67;20.33;;;256.90;896.00;;;;;;5015964;28;20022;-62
2022/03/27 02:24:21;;;;;;;38.20;21.05;;;256.90;896.00;;;;;;5015593;28;20472;-63
2022/03/27 02:26:49;;;;;;;33.53;19.42;;;281.60;921.60;;;;;;5015327;28;20128;-60
2022/03/27 02:29:16;;;;;;;32.78;18.60;;;281.60;921.60;;;;;;5007832;28;20476;-60
2022/03/27 02:31:43;;;;;;;35.53;19.88;;;256.90;896.00;;;;;;5015718;28;20104;-61
2022/03/27 02:34:08;;;;;;;32.83;19.80;;;281.60;921.60;;;;;;5015343;28;20064;-62
2022/03/27 02:36:34;;;;;;;35.03;20.23;;;256.90;896.00;;;;;;5016038;28;20029;-64
2022/03/27 02:39:00;;;;;;;34.40;19.23;;;281.60;921.60;;;;;;5015303;28;20118;-62
2022/03/27 02:41:26;;;;;;;36.55;20.35;;;281.60;921.60;;;;;;5015083;28;20050;-59
2022/03/27 02:43:51;;;;;;;33.42;19.45;;;281.60;921.60;;;;;;5015495;28;20034;-60
2022/03/27 02:46:18;;;;;;;37.22;20.80;;;256.90;896.00;;;;;;5015286;28;20468;-63
2022/03/27 02:48:43;;;;;;;35.45;20.45;;;281.60;921.60;;;;;;5015379;28;20399;-62
2022/03/27 02:51:09;;;;;;;35.22;21.05;;;281.60;921.60;;;;;;5015324;28;20040;-64
2022/03/27 02:53:35;;;;;;;37.35;19.88;;;281.60;921.60;;;;;;5015048;28;20045;-59
2022/03/27 02:56:04;;;;;;;36.65;20.15;;;256.90;896.00;;;;;;5014998;28;20476;-63
2022/03/27 02:58:30;;;;;;;35.22;20.95;;;256.90;921.60;;;;;;5015083;28;20042;-60
2022/03/27 03:00:56;;;;;;;39.05;19.58;;;256.90;921.60;;;;;;5015057;28;20076;-61
2022/03/27 03:03:22;;;;;;;37.08;19.95;;;256.90;921.60;;;;;;5015059;28;20037;-64
2022/03/27 03:05:49;;;;;;;36.03;20.10;;;256.90;921.60;;;;;;5015039;28;20038;-65
2022/03/27 03:08:17;;;;;;;38.72;20.40;;;256.90;921.60;;;;;;5014327;28;20053;-64
2022/03/27 03:10:43;;;;;;;39.13;20.45;;;256.80;921.60;;;;;;5014849;28;20080;-64
2022/03/27 03:13:10;;;;;;;34.42;18.85;;;256.80;921.60;;;;;;5015006;28;20030;-64
2022/03/27 03:15:42;;;;;;;35.47;19.85;;;256.70;921.60;;;;;;5014629;28;20030;-62
2022/03/27 03:18:10;;;;;;;35.70;19.95;;;256.70;947.20;;;;;;5014775;28;20030;-61
2022/03/27 03:20:36;;;;;;;35.22;21.45;;;256.70;921.60;;;;;;5014539;28;20098;-61
2022/03/27 03:23:02;;;;;;;36.53;19.88;;;256.70;947.20;;;;;;5014588;28;20052;-61
2022/03/27 03:25:29;;;;;;;35.42;20.33;;;256.60;921.60;;;;;;5014550;28;20368;-63
2022/03/27 03:27:55;;;;;;;37.58;19.65;;;256.50;947.20;;;;;;5014544;28;20105;-64
2022/03/27 03:30:22;;;;;;;36.60;21.50;;;256.50;947.20;;;;;;5014672;28;20057;-64
2022/03/27 03:32:48;;;;;;;35.92;20.60;;;256.50;947.20;;;;;;5014594;28;20026;-60
2022/03/27 03:35:14;;;;;;;34.13;20.13;;;256.40;947.20;;;;;;5014558;28;20053;-61
2022/03/27 03:37:40;;;;;;;32.80;19.67;;;256.40;947.20;;;;;;5014478;28;20053;-59
2022/03/27 03:40:07;;;;;;;35.75;19.73;;;256.40;947.20;;;;;;5014503;28;20030;-64
2022/03/27 03:42:36;;;;;;;32.95;19.63;;;256.40;947.20;;;;;;5014217;28;20045;-63
2022/03/27 03:45:03;;;;;;;38.88;20.23;;;256.50;947.20;;;;;;4997549;28;20065;-63
2022/03/27 03:47:29;;;;;;;37.47;20.52;;;256.60;947.20;;;;;;5014366;28;20158;-63
2022/03/27 03:49:55;;;;;;;35.10;19.75;;;256.60;947.20;;;;;;5014224;28;20040;-62
2022/03/27 03:52:21;;;;;;;40.65;21.15;;;256.60;947.20;;;;;;5014417;28;20105;-63
2022/03/27 03:54:47;;;;;;;31.65;19.88;;;256.60;947.20;;;;;;5014336;28;20107;-63
2022/03/27 03:57:13;;;;;;;40.72;20.90;;;256.60;947.20;;;;;;5014153;28;20180;-62
2022/03/27 03:59:39;;;;;;;38.13;20.40;;;256.60;947.20;;;;;;5014174;28;20531;-62
2022/03/27 04:02:06;;;;;;;37.75;21.05;;;256.60;947.20;;;;;;5014096;28;20026;-64
2022/03/27 04:04:33;;;;;;;36.72;19.92;;;256.60;947.20;;;;;;5013922;28;20389;-63
2022/03/27 04:07:03;;;;;;;32.38;18.30;;;256.60;947.20;;;;;;5013966;28;20026;-63
2022/03/27 04:09:29;;;;;;;33.88;18.73;;;256.60;947.20;;;;;;5014166;28;20029;-62
2022/03/27 04:11:55;;;;;;;35.92;19.92;;;256.50;947.20;;;;;;4996205;28;20375;-63
2022/03/27 04:14:21;;;;;;;35.00;19.38;;;256.50;947.20;;;;;;5014017;28;20025;-62
2022/03/27 04:16:48;;;;;;;36.05;20.23;;;256.50;947.20;;;;;;5014023;28;20457;-63
2022/03/27 04:19:14;;;;;;;35.88;20.45;;;256.50;947.20;;;;;;5013692;28;20042;-62
2022/03/27 04:21:40;;;;;;;36.28;19.45;;;256.60;947.20;;;;;;5013499;28;20567;-63
2022/03/27 04:24:08;;;;;;;41.53;20.48;;;256.60;947.20;;;;;;5013866;28;20053;-62
2022/03/27 04:26:35;;;;;;;38.10;19.02;;;256.70;947.20;;;;;;5013888;28;20033;-63
2022/03/27 04:29:02;;;;;;;32.65;19.55;;;256.60;947.20;;;;;;5013856;28;20036;-63
2022/03/27 04:31:29;;;;;;;38.10;19.98;;;256.50;947.20;;;;;;5013821;28;20026;-62
2022/03/27 04:33:55;;;;;;;37.17;20.52;;;256.60;947.20;;;;;;5013672;28;20068;-62
2022/03/27 04:36:21;;;;;;;39.40;21.38;;;256.60;972.80;;;;;;5014051;28;20029;-63
2022/03/27 04:38:47;;;;;;;43.83;22.73;;;256.50;972.80;;;;;;5013511;28;20034;-63
2022/03/27 04:41:13;;;;;;;40.38;21.75;;;256.50;972.80;;;;;;5013547;28;20018;-65
2022/03/27 04:43:38;;;;;;;35.45;20.65;;;256.50;972.80;;;;;;5013649;28;20026;-63
2022/03/27 04:46:04;;;;;;;44.70;22.75;;;256.60;972.80;;;;;;5013669;28;20018;-62
2022/03/27 04:48:30;;;;;;;47.35;25.52;;;256.60;972.80;;;;;;5014802;28;20026;-62
2022/03/27 04:50:56;;;;;;;45.78;24.60;;;256.60;972.80;;;;;;5017559;28;20030;-58
2022/03/27 04:53:22;;;;;;;40.85;21.60;;;256.50;972.80;;;;;;5017274;28;20026;-59
2022/03/27 04:55:49;;;;;;;47.58;24.23;;;256.60;972.80;;;;;;5017227;28;20026;-63
2022/03/27 04:58:16;;;;;;;37.28;21.33;;;256.60;972.80;;;;;;5017295;28;20538;-59
2022/03/27 05:00:43;;;;;;;37.15;20.65;;;256.60;998.40;;;;;;5017328;28;20017;-64
2022/03/27 05:03:08;;;;;;;33.75;17.98;;;256.70;998.40;;;;;;5017441;28;20032;-64
2022/03/27 05:05:34;;;;;;;35.65;20.05;;;256.70;998.40;;;;;;5017249;28;20034;-60
2022/03/27 05:08:00;;;;;;;32.80;18.67;;;256.70;998.40;;;;;;5017570;28;20033;-64
2022/03/27 05:10:26;;;;;;;39.08;19.13;;;256.80;998.40;;;;;;5017420;28;20022;-60
2022/03/27 05:12:52;;;;;;;37.30;19.20;;;256.80;998.40;;;;;;5017221;28;20022;-61
2022/03/27 05:15:18;;;;;;;31.92;18.38;;;256.80;998.40;;;;;;5017071;28;20053;-61
2022/03/27 05:17:58;;;;;;;31.88;17.65;;;256.90;1024.00;;;;;;5016974;28;20029;-61
2022/03/27 05:20:27;;;;;;;33.28;18.13;;;256.90;1024.00;;;;;;5017028;28;20050;-60
2022/03/27 05:22:53;;;;;;;33.53;18.13;;;281.60;1049.60;;;;;;5016988;28;20076;-60
2022/03/27 05:25:19;;;;;;;34.35;18.23;;;281.60;1049.60;;;;;;5016711;28;20030;-64
2022/03/27 05:27:48;;;;;;;31.20;18.98;;;281.60;1049.60;;;;;;5017091;28;20073;-61
2022/03/27 05:30:21;;;;;;;32.05;18.25;;;281.60;1024.00;;;;;;5016964;28;20030;-64
2022/03/27 05:32:48;;;;;;;33.72;18.10;;;281.70;1024.00;;;;;;5017122;28;20433;-64
2022/03/27 05:35:14;;;;;;;38.83;19.15;;;281.60;1049.60;;;;;;5016751;28;20029;-63
2022/03/27 05:37:42;;;;;;;29.77;17.27;;;281.80;1049.60;;;;;;5016552;28;20080;-60
2022/03/27 05:40:11;;;;;;;33.75;18.70;;;281.80;1049.60;;;;;;5016575;28;20025;-59
2022/03/27 05:42:37;;;;;;;33.28;18.42;;;281.90;1049.60;;;;;;5016134;28;20539;-62
2022/03/27 05:45:04;;;;;;;33.22;17.88;;;282.00;1049.60;;;;;;5016305;28;20129;-60
2022/03/27 05:47:30;;;;;;;34.58;18.10;;;282.10;1049.60;;;;;;5016540;28;20022;-64
2022/03/27 05:49:56;;;;;;;36.63;20.58;;;282.20;1024.00;;;;;;5016617;28;20029;-64
2022/03/27 05:52:23;;;;;;;33.58;17.60;;;282.20;1049.60;;;;;;5016261;28;20025;-60
2022/03/27 05:54:49;;;;;;;31.27;18.23;;;282.30;1049.60;;;;;;5016110;28;20030;-66
2022/03/27 05:57:18;;;;;;;34.25;19.23;;;282.30;1049.60;;;;;;5016246;28;20072;-64
2022/03/27 05:59:46;;;;;;;29.73;17.95;;;282.40;1049.60;;;;;;5015312;28;20117;-62
2022/03/27 06:02:13;;;;;;;26.42;16.33;;;282.50;1049.60;;;;;;5016707;28;20022;-61
2022/03/27 06:04:40;;;;;;;29.38;16.77;;;307.20;1075.20;;;;;;5015888;28;20380;-59
2022/03/27 06:07:06;;;;;;;38.00;17.75;;;307.20;1075.20;;;;;;5015939;28;20022;-59
2022/03/27 06:09:35;;;;;;;27.17;15.68;;;307.30;1100.80;;;;;;5016324;28;20061;-63
2022/03/27 06:12:02;;;;;;;30.90;15.80;;;307.40;1100.80;;;;;;5015761;28;20022;-60
2022/03/27 06:14:28;;;;;;;28.83;16.85;;;307.50;1100.80;;;;;;5015679;28;20022;-64
2022/03/27 06:16:54;;;;;;;36.67;18.08;;;307.60;1100.80;;;;;;5015723;28;20109;-59
2022/03/27 06:19:20;;;;;;;33.45;18.60;;;307.60;1126.40;;;;;;5015732;28;20069;-65
2022/03/27 06:21:46;;;;;;;33.53;18.33;;;307.70;1126.40;;;;;;5015899;28;20073;-64
2022/03/27 06:24:13;;;;;;;37.70;18.17;;;307.80;1126.40;;;;;;5015470;28;20029;-62
2022/03/27 06:26:42;;;;;;;35.00;17.33;;;307.90;1126.40;;;;;;5015712;28;20030;-65
2022/03/27 06:29:09;;;;;;;31.75;17.05;;;308.00;1126.40;;;;;;5015346;28;20080;-65
2022/03/27 06:31:38;;;;;;;28.05;15.20;;;308.10;1126.40;;;;;;4998122;28;20029;-60
2022/03/27 06:34:05;;;;;;;28.35;15.43;;;308.10;1126.40;;;;;;5015715;28;20030;-60
2022/03/27 06:36:32;;;;;;;31.10;15.63;;;332.80;1152.00;;;;;;5015420;28;20427;-64
2022/03/27 06:38:58;;;;;;;24.38;15.05;;;332.80;1152.00;;;;;;5015498;28;20068;-63
2022/03/27 06:41:24;;;;;;;37.25;15.90;;;332.90;1152.00;;;;;;5014086;28;20495;-65
2022/03/27 06:43:50;;;;;;;27.88;13.93;;;333.00;1177.60;;;;;;5014843;28;20101;-58
2022/03/27 06:46:17;;;;;;;26.17;14.77;;;333.10;1177.60;;;;;;5014204;28;20109;-59
2022/03/27 06:48:47;;;;;;;22.45;13.10;;;333.20;1177.60;;;;;;5013711;28;20472;-60
2022/03/27 06:51:13;;;;;;;26.92;12.80;;;333.30;1177.60;;;;;;5014570;28;20076;-61
2022/03/27 06:53:39;;;;;;;19.67;11.10;;;333.30;1177.60;;;;;;5014986;28;20106;-63
2022/03/27 06:56:06;;;;;;;23.95;11.02;;;333.50;1177.60;;;;;;5015161;28;20018;-62
2022/03/27 06:58:32;;;;;;;21.90;10.88;;;333.50;1177.60;;;;;;5015484;28;20030;-59
2022/03/27 07:03:42;;;;;;;25.95;10.90;;;333.70;1152.00;;;;;;5015466;28;20037;-65
2022/03/27 07:06:08;;;;;;;28.75;9.93;;;358.50;1152.00;;;;;;5015258;28;20034;-64
2022/03/27 07:08:34;;;;;;;41.45;10.73;;;358.50;1152.00;;;;;;5015020;28;20033;-61
2022/03/27 07:10:59;;;;;;;35.75;10.13;;;358.60;1152.00;;;;;;5014717;28;20036;-65
2022/03/27 07:13:25;;;;;;;22.58;10.05;;;358.70;1126.40;;;;;;5014732;28;20026;-66
2022/03/27 07:15:52;;;;;;;17.35;8.90;;;358.90;1126.40;;;;;;5014937;28;20026;-61
2022/03/27 07:18:18;;;;;;;15.38;9.43;;;358.90;1126.40;;;;;;5014886;28;20034;-66
2022/03/27 07:20:45;;;;;;;13.45;9.32;;;359.00;1100.80;;;;;;5014917;28;20045;-66
2022/03/27 07:23:14;;;;;;;15.13;9.75;;;359.10;1100.80;;;;;;5014897;28;20034;-62
2022/03/27 07:25:42;;;;;;;34.80;12.10;;;359.10;1100.80;;;;;;5014565;28;20022;-64
2022/03/27 07:28:09;;;;;;;19.40;9.77;;;359.20;1075.20;;;;;;5014438;28;20116;-65
2022/03/27 07:30:37;;;;;;;65.80;10.18;;;359.30;1075.20;;;;;;5014498;28;20133;-70
2022/03/27 07:33:03;;;;;;;82.57;11.25;;;384.10;1075.20;;;;;;5014329;28;20042;-67
2022/03/27 07:35:30;;;;;;;36.72;10.00;;;384.20;1075.20;;;;;;5014701;28;20430;-66
2022/03/27 07:37:56;;;;;;;19.90;7.40;;;384.30;1049.60;;;;;;5014237;28;20105;-64
2022/03/27 07:40:22;;;;;;;15.98;8.00;;;384.40;1049.60;;;;;;5014542;28;20029;-66
2022/03/27 07:42:50;;;;;;;13.20;7.25;;;384.60;1049.60;;;;;;5014108;28;20049;-67
2022/03/27 07:45:21;;;;;;;21.15;7.40;;;384.80;1024.00;;;;;;5014958;28;20109;-61
2022/03/27 07:47:49;;;;;;;12.93;7.13;;;384.90;1024.00;;;;;;5014418;28;20013;-67
2022/03/27 07:50:16;;;;;;;12.93;6.93;;;409.60;1024.00;;;;;;5014405;28;20045;-66
2022/03/27 07:52:44;;;;;;;25.38;6.68;;;409.70;1024.00;;;;;;5014230;28;20377;-65
2022/03/27 07:55:13;;;;;;;21.63;8.07;;;409.80;1049.60;;;;;;5014322;28;20487;-66
2022/03/27 07:57:40;;;;;;;15.98;6.32;;;410.00;1024.00;;;;;;5013958;28;20395;-72
2022/03/27 08:00:10;;;;;;;24.15;9.15;;;410.10;998.40;;;;;;5013939;28;20049;-66
2022/03/27 08:02:41;;;;;;;22.02;8.52;;;410.30;1024.00;;;;;;5013887;28;20049;-63
2022/03/27 08:05:07;;;;;;;17.55;7.03;;;410.40;998.40;;;;;;5014017;28;20083;-62
2022/03/27 08:07:33;;;;;;;22.15;7.10;;;410.50;998.40;;;;;;5014259;28;20104;-65
2022/03/27 08:09:59;;;;;;;17.05;6.90;;;435.20;998.40;;;;;;5014211;28;20057;-59
2022/03/27 08:12:26;;;;;;;12.60;6.75;;;435.30;972.80;;;;;;5013778;28;20040;-62
2022/03/27 08:14:52;;;;;;;15.68;6.97;;;435.40;972.80;;;;;;5013288;28;20072;-68
2022/03/27 08:17:19;;;;;;;12.55;6.15;;;435.40;998.40;;;;;;5010186;28;20025;-67
2022/03/27 08:19:46;;;;;;;15.18;7.55;;;435.60;972.80;;;;;;5012585;28;20022;-66
2022/03/27 08:22:12;;;;;;;12.50;5.90;;;435.70;972.80;;;;;;5012420;28;20061;-63
2022/03/27 08:24:39;;;;;;;9.70;5.82;;;435.70;947.20;;;;;;5011776;28;20018;-65
2022/03/27 08:27:06;;;;;;;9.68;5.72;;;435.80;947.20;;;;;;5015310;28;20105;-66
2022/03/27 08:29:34;;;;;;;12.48;5.53;;;435.90;947.20;;;;;;5019943;28;20614;-65
2022/03/27 08:32:02;;;;;;;14.88;5.70;;;436.00;947.20;;;;;;5012376;28;20029;-66
2022/03/27 08:34:30;;;;;;;12.45;5.93;;;436.00;947.20;;;;;;5012500;28;20050;-65
2022/03/27 08:36:57;;;;;;;8.45;5.18;;;436.10;921.60;;;;;;5012281;28;20586;-67
2022/03/27 08:39:23;;;;;;;16.33;6.05;;;436.10;921.60;;;;;;5014768;28;20064;-67
2022/03/27 08:41:51;;;;;;;9.90;5.38;;;436.10;921.60;;;;;;5012071;28;20121;-65
2022/03/27 08:44:19;;;;;;;7.93;4.75;;;436.00;921.60;;;;;;5028281;28;20375;-68
2022/03/27 08:46:46;;;;;;;9.52;5.78;;;436.00;921.60;;;;;;5033478;28;20430;-66
2022/03/27 08:49:42;;;;;;;10.75;5.57;;;436.00;921.60;;;;;;5033425;28;20080;-68
2022/03/27 08:52:21;;;;;;;12.85;5.60;;;436.00;921.60;;;;;;5033369;28;20026;-65
2022/03/27 08:55:01;;;;;;;10.90;5.90;;;436.00;921.60;;;;;;5033310;28;20034;-68
2022/03/27 08:57:45;;;;;;;11.18;5.30;;;436.00;921.60;;;;;;5033183;28;20475;-66
2022/03/27 09:00:11;;;;;;;13.88;5.35;;;436.00;921.60;;;;;;5033377;28;20137;-66
2022/03/27 09:02:39;;;;;;;14.57;5.20;;;436.00;896.00;;;;;;5033323;28;20033;-64
2022/03/27 09:05:05;;;;;;;12.35;5.65;;;436.00;921.60;;;;;;5033547;28;20029;-61
2022/03/27 09:07:31;;;;;;;13.32;6.32;;;436.00;896.00;;;;;;5033360;28;20475;-67
2022/03/27 09:10:00;;;;;;;13.38;5.25;;;435.90;896.00;;;;;;5033215;28;20032;-64
2022/03/27 09:12:27;;;;;;;11.40;5.32;;;435.90;896.00;;;;;;5027513;28;20022;-64
2022/03/27 09:14:53;;;;;;;17.50;5.43;;;435.90;896.00;;;;;;5013365;28;20038;-65
2022/03/27 09:17:18;;;;;;;10.80;4.75;;;435.90;896.00;;;;;;5013508;28;20537;-65
2022/03/27 09:19:49;;;;;;;10.60;4.80;;;435.90;896.00;;;;;;5012935;28;20132;-63
2022/03/27 09:22:21;;;;;;;11.25;4.85;;;436.00;896.00;;;;;;5012699;28;20030;-66
2022/03/27 09:24:55;;;;;;;13.90;4.85;;;435.90;870.40;;;;;;5010490;28;20581;-63
2022/03/27 09:27:36;;;;;;;10.65;4.68;;;435.90;870.40;;;;;;5012682;28;20026;-66
2022/03/27 09:30:09;;;;;;;6.45;4.25;;;435.90;844.80;;;;;;5012001;28;20030;-66
2022/03/27 09:32:40;;;;;;;9.95;4.60;;;435.90;844.80;;;;;;4993764;28;20022;-64
2022/03/27 09:35:11;;;;;;;8.27;4.93;;;435.90;844.80;;;;;;4995682;28;20030;-62
2022/03/27 09:37:41;;;;;;;14.20;6.00;;;435.90;844.80;;;;;;4997336;28;20030;-62
2022/03/27 09:40:09;;;;;;;13.05;7.50;;;435.90;844.80;;;;;;4997256;28;20034;-61
2022/03/27 09:42:40;;;;;;;14.35;8.23;;;435.90;844.80;;;;;;4996772;28;20042;-64
2022/03/27 09:45:25;;;;;;;9.90;6.85;;;436.00;844.80;;;;;;4996981;28;20033;-65
2022/03/27 09:47:55;;;;;;;11.48;7.07;;;436.00;844.80;;;;;;5014236;28;20053;-63
2022/03/27 09:50:34;;;;;;;9.25;6.53;;;436.10;844.80;;;;;;5015932;28;20498;-65
2022/03/27 09:53:25;;;;;;;9.85;5.57;;;460.80;896.00;;;;;;5014504;28;20054;-64
2022/03/27 09:56:12;;;;;;;11.57;5.90;;;460.90;896.00;;;;;;5018171;28;20033;-66
2022/03/27 09:58:45;;;;;;;9.90;5.95;;;460.90;870.40;;;;;;5014465;28;20045;-65
2022/03/27 10:01:20;;;;;;;10.43;5.25;;;460.90;896.00;;;;;;5015141;28;20034;-65
2022/03/27 10:04:13;;;;;;;8.77;5.32;;;460.90;896.00;;;;;;5014772;28;20034;-66
2022/03/27 10:06:41;;;;;;;10.00;5.60;;;461.00;896.00;;;;;;5013791;28;20048;-67
2022/03/27 10:09:09;;;;;;;8.98;5.45;;;460.90;896.00;;;;;;5014700;28;20075;-67
2022/03/27 10:11:37;;;;;;;12.32;5.28;;;460.90;896.00;;;;;;5015422;28;20033;-65
2022/03/27 10:14:04;;;;;;;30.38;5.18;;;461.00;896.00;;;;;;5016112;28;20049;-63
2022/03/27 10:16:36;;;;;;;20.23;6.80;;;461.10;921.60;;;;;;5016082;28;20034;-68
2022/03/27 10:19:05;;;;;;;14.45;6.55;;;461.10;921.60;;;;;;5015997;28;20379;-64
2022/03/27 10:21:33;;;;;;;12.70;6.50;;;461.10;896.00;;;;;;5016218;28;20085;-68
2022/03/27 10:24:15;;;;;;;12.30;5.97;;;461.10;921.60;;;;;;5016088;28;20022;-63
2022/03/27 10:26:43;;;;;;;12.52;6.68;;;461.10;896.00;;;;;;5015761;28;20472;-67
2022/03/27 10:29:11;;;;;;;7.75;5.30;;;461.10;896.00;;;;;;5015903;28;20037;-66
2022/03/27 10:31:38;;;;;;;13.80;5.63;;;461.10;896.00;;;;;;5015425;28;20032;-67
2022/03/27 10:34:07;;;;;;;9.82;5.05;;;461.20;896.00;;;;;;4997608;28;20154;-67
2022/03/27 10:36:42;;;;;;;10.25;4.93;;;461.20;896.00;;;;;;5015779;28;20036;-64
2022/03/27 10:39:35;;;;;;;8.02;4.72;;;461.20;896.00;;;;;;5015546;28;20476;-64
2022/03/27 10:42:34;;;;;;;11.35;5.30;;;461.20;896.00;;;;;;5015402;28;20504;-68
2022/03/27 10:45:21;;;;;;;8.90;4.93;;;461.20;896.00;;;;;;5015700;28;20560;-63
2022/03/27 10:48:09;;;;;;;23.85;13.90;;;461.20;896.00;;;;;;5014804;28;20087;-67
2022/03/27 10:50:49;;;;;;;26.40;12.38;;;461.30;896.00;;;;;;5015266;28;20476;-66
2022/03/27 10:53:15;;;;;;;21.02;10.13;;;461.30;896.00;;;;;;5015581;28;20100;-67
2022/03/27 10:55:47;;;;;;;29.30;14.32;;;461.40;896.00;;;;;;5015046;28;20037;-68
2022/03/27 10:58:30;;;;;;;14.40;9.75;;;461.50;896.00;;;;;;5015359;28;20030;-68
2022/03/27 11:01:01;;;;;;;11.57;7.50;;;461.50;870.40;;;;;;5015011;28;20041;-68
2022/03/27 11:03:47;;;;;;;11.82;6.45;;;461.50;870.40;;;;;;5015082;28;20045;-67
2022/03/27 11:06:27;;;;;;;8.35;5.13;;;461.60;870.40;;;;;;5015386;28;20029;-67
2022/03/27 11:08:54;;;;;;;11.93;6.63;;;461.60;870.40;;;;;;5015039;28;20057;-68
2022/03/27 11:11:39;;;;;;;15.93;7.43;;;461.60;844.80;;;;;;5015090;28;20018;-68
2022/03/27 11:14:09;;;;;;;;;;;486.40;870.40;;;;;;4997206;28;20030;-67
2022/03/27 11:17:06;;;;;;;15.10;5.95;;;486.40;870.40;;;;;;5015168;28;19929;-67
2022/03/27 11:19:47;;;;;;;9.38;5.80;;;486.40;844.80;;;;;;5015076;28;20176;-64
2022/03/27 11:22:43;;;;;;;7.63;4.13;;;486.40;844.80;;;;;;5014979;28;20357;-67
2022/03/27 11:25:32;;;;;;;9.15;4.70;;;486.50;819.20;;;;;;4954419;29;20059;-68
2022/03/27 11:28:06;;;;;;;10.15;4.35;;;486.50;819.20;;;;;;4954312;29;20027;-67
2022/03/27 11:30:35;;;;;;;15.85;5.28;;;486.50;819.20;;;;;;4954322;29;20038;-68
2022/03/27 11:33:16;;;;;;;7.40;3.95;;;486.50;819.20;;;;;;4952311;29;20038;-64
2022/03/27 11:36:09;;;;;;;6.82;4.03;;;486.60;819.20;;;;;;4952877;29;20070;-66
2022/03/27 11:38:36;;;;;;;6.50;4.07;;;486.60;819.20;;;;;;4953909;29;20058;-64
2022/03/27 11:41:22;;;;;;;5.90;4.00;;;486.60;793.60;;;;;;4953527;29;20078;-65
2022/03/27 11:43:47;;;;;;;6.43;3.72;;;486.70;793.60;;;;;;4954090;29;20042;-67
2022/03/27 11:46:27;;;;;;;8.38;4.03;;;486.80;793.60;;;;;;4953878;29;20028;-64
2022/03/27 11:49:00;;;;;;;17.27;4.55;;;486.80;793.60;;;;;;4953808;29;20062;-65
2022/03/27 11:51:27;;;;;;;9.32;4.50;;;486.80;793.60;;;;;;4937786;29;20532;-67
2022/03/27 11:53:54;;;;;;;6.32;3.80;;;486.90;793.60;;;;;;4953725;29;20398;-67
2022/03/27 11:56:21;;;;;;;8.40;5.38;;;487.00;768.00;;;;;;4937395;29;20031;-67
2022/03/27 11:59:07;;;;;;;7.93;4.85;;;487.00;768.00;;;;;;4953231;28;20039;-67
2022/03/27 12:01:32;;;;;;;10.02;4.75;;;487.10;768.00;;;;;;4984747;28;20058;-66
2022/03/27 12:03:59;;;;;;;12.40;5.97;;;487.10;768.00;;;;;;5014036;28;20029;-64
2022/03/27 12:06:29;;;;;;;11.20;7.07;;;487.10;768.00;;;;;;5014206;28;20024;-66
2022/03/27 12:08:56;;;;;;;18.05;8.30;;;487.10;793.60;;;;;;5013997;28;20499;-67
2022/03/27 12:11:25;;;;;;;9.52;6.90;;;487.10;793.60;;;;;;5013805;28;20072;-67
2022/03/27 12:13:51;;;;;;;13.93;7.97;;;487.20;793.60;;;;;;5013897;28;20037;-67
2022/03/27 12:16:23;;;;;;;14.75;7.00;;;487.20;793.60;;;;;;5014061;28;20080;-64
2022/03/27 12:18:49;;;;;;;10.75;5.10;;;487.30;793.60;;;;;;5013627;28;20030;-67
2022/03/27 12:21:20;;;;;;;10.65;5.22;;;487.30;793.60;;;;;;5013701;28;20034;-64
2022/03/27 12:23:56;;;;;;;8.05;4.68;;;487.30;793.60;;;;;;5013907;28;20029;-67